sensor_id;sensor_type;location;lat;lon;timestamp;P1;durP1;ratioP1;P2;durP2;ratioP2
3847;SDS011;1939;48.720;9.166;2023-02-28T00:02:19;7.10;;;3.47;;
3847;SDS011;1939;48.720;9.166;2023-02-28T00:04:44;2.70;;;2.03;;
3847;SDS011;1939;48.720;9.166;2023-02-28T00:07:09;4.13;;;2.33;;
3847;SDS011;1939;48.720;9.166;2023-02-28T00:09:34;2.70;;;1.97;;
3847;SDS011;1939;48.720;9.166;2023-02-28T00:11:59;4.17;;;3.03;;
3847;SDS011;1939;48.720;9.166;2023-02-28T00:14:25;5.20;;;2.10;;
3847;SDS011;1939;48.720;9.166;2023-02-28T00:16:50;4.97;;;2.83;;
3847;SDS011;1939;48.720;9.166;2023-02-28T00:19:15;4.33;;;2.63;;
3847;SDS011;1939;48.720;9.166;2023-02-28T00:21:40;2.93;;;2.60;;
3847;SDS011;1939;48.720;9.166;2023-02-28T00:24:06;5.90;;;2.77;;
3847;SDS011;1939;48.720;9.166;2023-02-28T00:26:31;2.30;;;2.10;;
3847;SDS011;1939;48.720;9.166;2023-02-28T00:28:56;6.13;;;2.40;;
3847;SDS011;1939;48.720;9.166;2023-02-28T00:31:21;6.03;;;3.20;;
3847;SDS011;1939;48.720;9.166;2023-02-28T00:33:47;3.60;;;2.33;;
3847;SDS011;1939;48.720;9.166;2023-02-28T00:36:12;3.30;;;2.27;;
3847;SDS011;1939;48.720;9.166;2023-02-28T00:38:37;7.50;;;3.07;;
3847;SDS011;1939;48.720;9.166;2023-02-28T00:41:03;4.00;;;2.40;;
3847;SDS011;1939;48.720;9.166;2023-02-28T00:43:29;3.10;;;2.30;;
3847;SDS011;1939;48.720;9.166;2023-02-28T00:45:54;5.57;;;2.93;;
3847;SDS011;1939;48.720;9.166;2023-02-28T00:48:19;5.93;;;2.60;;
3847;SDS011;1939;48.720;9.166;2023-02-28T00:50:47;6.10;;;3.07;;
3847;SDS011;1939;48.720;9.166;2023-02-28T00:53:13;4.13;;;2.90;;
3847;SDS011;1939;48.720;9.166;2023-02-28T00:55:38;9.80;;;3.67;;
3847;SDS011;1939;48.720;9.166;2023-02-28T00:58:03;5.00;;;3.03;;
3847;SDS011;1939;48.720;9.166;2023-02-28T01:00:28;5.20;;;2.70;;
3847;SDS011;1939;48.720;9.166;2023-02-28T01:02:53;7.07;;;3.50;;
3847;SDS011;1939;48.720;9.166;2023-02-28T01:05:18;3.63;;;2.77;;
3847;SDS011;1939;48.720;9.166;2023-02-28T01:07:44;4.10;;;2.47;;
3847;SDS011;1939;48.720;9.166;2023-02-28T01:10:09;4.30;;;2.43;;
3847;SDS011;1939;48.720;9.166;2023-02-28T01:12:34;2.80;;;2.33;;
3847;SDS011;1939;48.720;9.166;2023-02-28T01:15:00;3.43;;;2.10;;
3847;SDS011;1939;48.720;9.166;2023-02-28T01:17:25;5.47;;;3.17;;
3847;SDS011;1939;48.720;9.166;2023-02-28T01:19:52;8.10;;;3.00;;
3847;SDS011;1939;48.720;9.166;2023-02-28T01:22:17;4.70;;;2.37;;
3847;SDS011;1939;48.720;9.166;2023-02-28T01:24:43;5.80;;;2.70;;
3847;SDS011;1939;48.720;9.166;2023-02-28T01:27:08;4.63;;;2.53;;
3847;SDS011;1939;48.720;9.166;2023-02-28T01:29:33;4.23;;;2.90;;
3847;SDS011;1939;48.720;9.166;2023-02-28T01:31:58;4.30;;;2.63;;
3847;SDS011;1939;48.720;9.166;2023-02-28T01:34:24;6.00;;;2.90;;
3847;SDS011;1939;48.720;9.166;2023-02-28T01:36:49;5.50;;;3.53;;
3847;SDS011;1939;48.720;9.166;2023-02-28T01:39:14;6.77;;;3.20;;
3847;SDS011;1939;48.720;9.166;2023-02-28T01:41:40;5.00;;;3.10;;
3847;SDS011;1939;48.720;9.166;2023-02-28T01:44:06;4.40;;;3.00;;
3847;SDS011;1939;48.720;9.166;2023-02-28T01:46:35;5.07;;;3.00;;
3847;SDS011;1939;48.720;9.166;2023-02-28T01:51:30;2.40;;;2.17;;
3847;SDS011;1939;48.720;9.166;2023-02-28T01:53:58;5.03;;;4.03;;
3847;SDS011;1939;48.720;9.166;2023-02-28T01:56:26;4.63;;;3.10;;
3847;SDS011;1939;48.720;9.166;2023-02-28T01:58:53;3.43;;;3.00;;
3847;SDS011;1939;48.720;9.166;2023-02-28T02:01:19;3.40;;;3.10;;
3847;SDS011;1939;48.720;9.166;2023-02-28T02:03:51;3.20;;;2.90;;
3847;SDS011;1939;48.720;9.166;2023-02-28T02:06:21;6.83;;;3.47;;
3847;SDS011;1939;48.720;9.166;2023-02-28T02:08:47;4.83;;;3.43;;
3847;SDS011;1939;48.720;9.166;2023-02-28T02:11:12;6.67;;;3.07;;
3847;SDS011;1939;48.720;9.166;2023-02-28T02:13:43;4.10;;;2.53;;
3847;SDS011;1939;48.720;9.166;2023-02-28T02:26:46;4.47;;;3.20;;
3847;SDS011;1939;48.720;9.166;2023-02-28T02:32:18;6.87;;;4.07;;
3847;SDS011;1939;48.720;9.166;2023-02-28T02:37:27;6.90;;;4.10;;
3847;SDS011;1939;48.720;9.166;2023-02-28T02:40:00;7.80;;;4.07;;
3847;SDS011;1939;48.720;9.166;2023-02-28T02:42:33;6.50;;;3.50;;
3847;SDS011;1939;48.720;9.166;2023-02-28T02:45:03;5.40;;;3.10;;
3847;SDS011;1939;48.720;9.166;2023-02-28T02:47:31;5.10;;;3.30;;
3847;SDS011;1939;48.720;9.166;2023-02-28T02:49:57;6.00;;;3.67;;
3847;SDS011;1939;48.720;9.166;2023-02-28T02:52:26;6.57;;;4.17;;
3847;SDS011;1939;48.720;9.166;2023-02-28T02:54:54;6.93;;;4.07;;
3847;SDS011;1939;48.720;9.166;2023-02-28T02:57:22;5.80;;;3.70;;
3847;SDS011;1939;48.720;9.166;2023-02-28T02:59:48;3.97;;;2.87;;
3847;SDS011;1939;48.720;9.166;2023-02-28T03:02:14;4.57;;;3.70;;
3847;SDS011;1939;48.720;9.166;2023-02-28T03:04:42;3.67;;;2.97;;
3847;SDS011;1939;48.720;9.166;2023-02-28T03:07:08;7.60;;;3.30;;
3847;SDS011;1939;48.720;9.166;2023-02-28T03:09:34;5.20;;;3.67;;
3847;SDS011;1939;48.720;9.166;2023-02-28T03:12:00;6.00;;;3.50;;
3847;SDS011;1939;48.720;9.166;2023-02-28T03:19:42;5.33;;;3.90;;
3847;SDS011;1939;48.720;9.166;2023-02-28T03:22:26;5.57;;;4.43;;
3847;SDS011;1939;48.720;9.166;2023-02-28T03:24:55;5.40;;;3.47;;
3847;SDS011;1939;48.720;9.166;2023-02-28T03:27:23;5.30;;;3.30;;
3847;SDS011;1939;48.720;9.166;2023-02-28T03:29:51;4.27;;;3.47;;
3847;SDS011;1939;48.720;9.166;2023-02-28T03:32:18;4.10;;;3.57;;
3847;SDS011;1939;48.720;9.166;2023-02-28T03:35:29;7.40;;;4.10;;
3847;SDS011;1939;48.720;9.166;2023-02-28T03:37:35;9.00;;;4.20;;
3847;SDS011;1939;48.720;9.166;2023-02-28T03:40:06;5.90;;;3.93;;
3847;SDS011;1939;48.720;9.166;2023-02-28T03:42:34;7.07;;;3.93;;
3847;SDS011;1939;48.720;9.166;2023-02-28T03:45:02;5.73;;;4.23;;
3847;SDS011;1939;48.720;9.166;2023-02-28T03:47:32;7.83;;;4.00;;
3847;SDS011;1939;48.720;9.166;2023-02-28T03:52:27;4.70;;;3.80;;
3847;SDS011;1939;48.720;9.166;2023-02-28T03:54:54;8.60;;;4.30;;
3847;SDS011;1939;48.720;9.166;2023-02-28T03:57:23;9.27;;;5.23;;
3847;SDS011;1939;48.720;9.166;2023-02-28T03:59:53;9.30;;;4.10;;
3847;SDS011;1939;48.720;9.166;2023-02-28T04:02:21;7.53;;;4.63;;
3847;SDS011;1939;48.720;9.166;2023-02-28T04:04:46;7.53;;;4.07;;
3847;SDS011;1939;48.720;9.166;2023-02-28T04:07:13;4.40;;;4.00;;
3847;SDS011;1939;48.720;9.166;2023-02-28T04:09:39;8.10;;;4.03;;
3847;SDS011;1939;48.720;9.166;2023-02-28T04:12:04;7.37;;;4.40;;
3847;SDS011;1939;48.720;9.166;2023-02-28T04:14:29;6.23;;;4.33;;
3847;SDS011;1939;48.720;9.166;2023-02-28T04:16:54;5.03;;;4.47;;
3847;SDS011;1939;48.720;9.166;2023-02-28T04:19:20;8.27;;;3.87;;
3847;SDS011;1939;48.720;9.166;2023-02-28T04:21:46;6.67;;;4.20;;
3847;SDS011;1939;48.720;9.166;2023-02-28T04:24:16;6.53;;;4.80;;
3847;SDS011;1939;48.720;9.166;2023-02-28T04:26:46;6.73;;;4.20;;
3847;SDS011;1939;48.720;9.166;2023-02-28T04:29:12;5.23;;;3.97;;
3847;SDS011;1939;48.720;9.166;2023-02-28T04:31:38;5.70;;;3.80;;
3847;SDS011;1939;48.720;9.166;2023-02-28T04:34:03;8.17;;;3.97;;
3847;SDS011;1939;48.720;9.166;2023-02-28T04:36:29;8.83;;;3.97;;
3847;SDS011;1939;48.720;9.166;2023-02-28T04:38:54;7.87;;;4.63;;
3847;SDS011;1939;48.720;9.166;2023-02-28T04:41:20;7.53;;;4.53;;
3847;SDS011;1939;48.720;9.166;2023-02-28T04:43:45;8.10;;;4.27;;
3847;SDS011;1939;48.720;9.166;2023-02-28T04:46:10;6.80;;;3.47;;
3847;SDS011;1939;48.720;9.166;2023-02-28T04:48:37;10.07;;;4.60;;
3847;SDS011;1939;48.720;9.166;2023-02-28T04:51:07;9.10;;;4.60;;
3847;SDS011;1939;48.720;9.166;2023-02-28T04:53:33;7.33;;;4.87;;
3847;SDS011;1939;48.720;9.166;2023-02-28T04:55:59;7.40;;;4.27;;
3847;SDS011;1939;48.720;9.166;2023-02-28T04:58:25;4.60;;;3.50;;
3847;SDS011;1939;48.720;9.166;2023-02-28T05:00:53;8.47;;;6.37;;
3847;SDS011;1939;48.720;9.166;2023-02-28T05:03:19;9.30;;;4.80;;
3847;SDS011;1939;48.720;9.166;2023-02-28T05:05:45;7.57;;;4.50;;
3847;SDS011;1939;48.720;9.166;2023-02-28T05:08:11;18.20;;;8.50;;
3847;SDS011;1939;48.720;9.166;2023-02-28T05:10:36;7.13;;;4.20;;
3847;SDS011;1939;48.720;9.166;2023-02-28T05:13:01;8.60;;;4.57;;
3847;SDS011;1939;48.720;9.166;2023-02-28T05:15:26;5.83;;;4.20;;
3847;SDS011;1939;48.720;9.166;2023-02-28T05:17:52;9.23;;;4.30;;
3847;SDS011;1939;48.720;9.166;2023-02-28T05:20:17;5.87;;;4.13;;
3847;SDS011;1939;48.720;9.166;2023-02-28T05:22:42;11.00;;;6.00;;
3847;SDS011;1939;48.720;9.166;2023-02-28T05:25:18;5.37;;;4.57;;
3847;SDS011;1939;48.720;9.166;2023-02-28T05:27:44;8.83;;;4.87;;
3847;SDS011;1939;48.720;9.166;2023-02-28T05:30:09;7.77;;;4.83;;
3847;SDS011;1939;48.720;9.166;2023-02-28T05:32:38;7.23;;;4.73;;
3847;SDS011;1939;48.720;9.166;2023-02-28T05:35:03;16.80;;;5.13;;
3847;SDS011;1939;48.720;9.166;2023-02-28T05:37:29;9.47;;;4.50;;
3847;SDS011;1939;48.720;9.166;2023-02-28T05:39:54;7.50;;;5.07;;
3847;SDS011;1939;48.720;9.166;2023-02-28T05:42:19;9.50;;;5.57;;
3847;SDS011;1939;48.720;9.166;2023-02-28T05:44:44;8.40;;;5.40;;
3847;SDS011;1939;48.720;9.166;2023-02-28T05:47:09;7.80;;;5.40;;
3847;SDS011;1939;48.720;9.166;2023-02-28T05:49:35;7.53;;;4.50;;
3847;SDS011;1939;48.720;9.166;2023-02-28T05:52:00;10.93;;;6.40;;
3847;SDS011;1939;48.720;9.166;2023-02-28T05:54:25;7.20;;;5.30;;
3847;SDS011;1939;48.720;9.166;2023-02-28T05:56:50;11.03;;;5.10;;
3847;SDS011;1939;48.720;9.166;2023-02-28T05:59:16;6.90;;;4.43;;
3847;SDS011;1939;48.720;9.166;2023-02-28T06:01:45;9.00;;;5.53;;
3847;SDS011;1939;48.720;9.166;2023-02-28T06:04:13;14.90;;;7.43;;
3847;SDS011;1939;48.720;9.166;2023-02-28T06:06:39;9.70;;;5.10;;
3847;SDS011;1939;48.720;9.166;2023-02-28T06:09:05;10.93;;;5.20;;
3847;SDS011;1939;48.720;9.166;2023-02-28T06:11:30;8.30;;;5.60;;
3847;SDS011;1939;48.720;9.166;2023-02-28T06:13:58;10.93;;;6.17;;
3847;SDS011;1939;48.720;9.166;2023-02-28T06:16:25;7.30;;;4.93;;
3847;SDS011;1939;48.720;9.166;2023-02-28T06:18:50;7.87;;;5.23;;
3847;SDS011;1939;48.720;9.166;2023-02-28T06:21:15;11.83;;;5.90;;
3847;SDS011;1939;48.720;9.166;2023-02-28T06:23:40;7.80;;;5.60;;
3847;SDS011;1939;48.720;9.166;2023-02-28T06:26:06;10.40;;;5.80;;
3847;SDS011;1939;48.720;9.166;2023-02-28T06:28:31;10.73;;;6.20;;
3847;SDS011;1939;48.720;9.166;2023-02-28T06:30:56;11.13;;;5.50;;
3847;SDS011;1939;48.720;9.166;2023-02-28T06:33:21;15.23;;;6.40;;
3847;SDS011;1939;48.720;9.166;2023-02-28T06:35:47;8.37;;;4.73;;
3847;SDS011;1939;48.720;9.166;2023-02-28T06:38:14;9.80;;;6.40;;
3847;SDS011;1939;48.720;9.166;2023-02-28T06:40:40;10.83;;;5.90;;
3847;SDS011;1939;48.720;9.166;2023-02-28T06:43:05;17.07;;;6.30;;
3847;SDS011;1939;48.720;9.166;2023-02-28T06:45:30;9.77;;;6.30;;
3847;SDS011;1939;48.720;9.166;2023-02-28T06:47:56;8.50;;;5.90;;
3847;SDS011;1939;48.720;9.166;2023-02-28T06:50:21;12.20;;;7.33;;
3847;SDS011;1939;48.720;9.166;2023-02-28T06:52:46;10.40;;;5.20;;
3847;SDS011;1939;48.720;9.166;2023-02-28T06:55:11;12.80;;;7.00;;
3847;SDS011;1939;48.720;9.166;2023-02-28T06:57:37;9.37;;;5.97;;
3847;SDS011;1939;48.720;9.166;2023-02-28T07:00:06;14.87;;;7.10;;
3847;SDS011;1939;48.720;9.166;2023-02-28T07:02:32;12.30;;;6.27;;
3847;SDS011;1939;48.720;9.166;2023-02-28T07:04:57;8.27;;;6.00;;
3847;SDS011;1939;48.720;9.166;2023-02-28T07:07:23;13.70;;;6.57;;
3847;SDS011;1939;48.720;9.166;2023-02-28T07:09:48;10.20;;;6.53;;
3847;SDS011;1939;48.720;9.166;2023-02-28T07:12:13;10.40;;;5.90;;
3847;SDS011;1939;48.720;9.166;2023-02-28T07:14:38;16.63;;;6.70;;
3847;SDS011;1939;48.720;9.166;2023-02-28T07:17:03;12.10;;;6.87;;
3847;SDS011;1939;48.720;9.166;2023-02-28T07:19:29;8.47;;;5.33;;
3847;SDS011;1939;48.720;9.166;2023-02-28T07:21:54;7.93;;;6.23;;
3847;SDS011;1939;48.720;9.166;2023-02-28T07:24:19;11.30;;;7.20;;
3847;SDS011;1939;48.720;9.166;2023-02-28T07:26:44;8.03;;;6.07;;
3847;SDS011;1939;48.720;9.166;2023-02-28T07:29:09;10.00;;;6.53;;
3847;SDS011;1939;48.720;9.166;2023-02-28T07:31:35;14.50;;;8.03;;
3847;SDS011;1939;48.720;9.166;2023-02-28T07:34:00;18.90;;;7.30;;
3847;SDS011;1939;48.720;9.166;2023-02-28T07:36:25;13.90;;;7.30;;
3847;SDS011;1939;48.720;9.166;2023-02-28T07:38:50;12.53;;;6.57;;
3847;SDS011;1939;48.720;9.166;2023-02-28T07:41:16;15.17;;;7.00;;
3847;SDS011;1939;48.720;9.166;2023-02-28T07:43:42;12.53;;;6.80;;
3847;SDS011;1939;48.720;9.166;2023-02-28T07:46:08;15.93;;;7.73;;
3847;SDS011;1939;48.720;9.166;2023-02-28T07:48:34;15.77;;;7.20;;
3847;SDS011;1939;48.720;9.166;2023-02-28T07:51:00;12.30;;;7.50;;
3847;SDS011;1939;48.720;9.166;2023-02-28T07:53:26;8.90;;;7.00;;
3847;SDS011;1939;48.720;9.166;2023-02-28T07:55:54;14.73;;;7.73;;
3847;SDS011;1939;48.720;9.166;2023-02-28T07:58:19;11.23;;;6.30;;
3847;SDS011;1939;48.720;9.166;2023-02-28T08:00:44;12.30;;;7.70;;
3847;SDS011;1939;48.720;9.166;2023-02-28T08:03:13;15.70;;;8.47;;
3847;SDS011;1939;48.720;9.166;2023-02-28T08:05:41;10.07;;;6.40;;
3847;SDS011;1939;48.720;9.166;2023-02-28T08:08:06;14.63;;;7.20;;
3847;SDS011;1939;48.720;9.166;2023-02-28T08:10:32;13.80;;;7.93;;
3847;SDS011;1939;48.720;9.166;2023-02-28T08:12:57;11.27;;;7.20;;
3847;SDS011;1939;48.720;9.166;2023-02-28T08:15:22;14.87;;;7.77;;
3847;SDS011;1939;48.720;9.166;2023-02-28T08:17:47;9.63;;;6.70;;
3847;SDS011;1939;48.720;9.166;2023-02-28T08:20:13;11.30;;;6.90;;
3847;SDS011;1939;48.720;9.166;2023-02-28T08:22:38;15.00;;;7.70;;
3847;SDS011;1939;48.720;9.166;2023-02-28T08:25:03;17.13;;;8.33;;
3847;SDS011;1939;48.720;9.166;2023-02-28T08:27:28;13.97;;;7.20;;
3847;SDS011;1939;48.720;9.166;2023-02-28T08:29:54;10.80;;;6.80;;
3847;SDS011;1939;48.720;9.166;2023-02-28T08:32:19;12.27;;;7.17;;
3847;SDS011;1939;48.720;9.166;2023-02-28T08:34:44;18.50;;;7.97;;
3847;SDS011;1939;48.720;9.166;2023-02-28T08:37:09;14.00;;;8.60;;
3847;SDS011;1939;48.720;9.166;2023-02-28T08:39:35;9.73;;;7.47;;
3847;SDS011;1939;48.720;9.166;2023-02-28T08:42:01;11.10;;;6.83;;
3847;SDS011;1939;48.720;9.166;2023-02-28T08:44:26;14.60;;;7.50;;
3847;SDS011;1939;48.720;9.166;2023-02-28T08:46:52;11.17;;;7.10;;
3847;SDS011;1939;48.720;9.166;2023-02-28T08:49:17;12.43;;;6.80;;
3847;SDS011;1939;48.720;9.166;2023-02-28T08:51:43;17.70;;;7.97;;
3847;SDS011;1939;48.720;9.166;2023-02-28T08:54:08;16.70;;;7.93;;
3847;SDS011;1939;48.720;9.166;2023-02-28T08:56:34;14.40;;;8.03;;
3847;SDS011;1939;48.720;9.166;2023-02-28T08:58:59;14.03;;;7.40;;
3847;SDS011;1939;48.720;9.166;2023-02-28T09:01:26;13.67;;;8.70;;
3847;SDS011;1939;48.720;9.166;2023-02-28T09:03:54;11.63;;;8.23;;
3847;SDS011;1939;48.720;9.166;2023-02-28T09:06:20;13.20;;;7.37;;
3847;SDS011;1939;48.720;9.166;2023-02-28T09:08:46;8.87;;;5.83;;
3847;SDS011;1939;48.720;9.166;2023-02-28T09:11:12;16.23;;;8.07;;
3847;SDS011;1939;48.720;9.166;2023-02-28T09:13:38;12.13;;;7.50;;
3847;SDS011;1939;48.720;9.166;2023-02-28T09:16:04;14.57;;;7.67;;
3847;SDS011;1939;48.720;9.166;2023-02-28T09:18:29;15.70;;;7.73;;
3847;SDS011;1939;48.720;9.166;2023-02-28T09:20:55;11.73;;;6.90;;
3847;SDS011;1939;48.720;9.166;2023-02-28T09:23:20;14.20;;;8.40;;
3847;SDS011;1939;48.720;9.166;2023-02-28T09:25:46;10.47;;;6.70;;
3847;SDS011;1939;48.720;9.166;2023-02-28T09:28:12;10.50;;;7.73;;
3847;SDS011;1939;48.720;9.166;2023-02-28T09:30:37;13.10;;;6.67;;
3847;SDS011;1939;48.720;9.166;2023-02-28T09:33:02;14.17;;;7.47;;
3847;SDS011;1939;48.720;9.166;2023-02-28T09:35:28;14.27;;;8.07;;
3847;SDS011;1939;48.720;9.166;2023-02-28T09:37:53;15.87;;;8.60;;
3847;SDS011;1939;48.720;9.166;2023-02-28T09:40:19;10.33;;;7.07;;
3847;SDS011;1939;48.720;9.166;2023-02-28T09:42:46;11.47;;;7.37;;
3847;SDS011;1939;48.720;9.166;2023-02-28T09:45:22;13.50;;;7.40;;
3847;SDS011;1939;48.720;9.166;2023-02-28T09:47:47;16.27;;;8.00;;
3847;SDS011;1939;48.720;9.166;2023-02-28T09:50:18;14.53;;;7.90;;
3847;SDS011;1939;48.720;9.166;2023-02-28T09:52:48;13.27;;;7.87;;
3847;SDS011;1939;48.720;9.166;2023-02-28T09:57:40;16.17;;;8.37;;
3847;SDS011;1939;48.720;9.166;2023-02-28T10:00:18;11.17;;;7.20;;
3847;SDS011;1939;48.720;9.166;2023-02-28T10:05:23;13.27;;;7.30;;
3847;SDS011;1939;48.720;9.166;2023-02-28T10:10:19;12.10;;;7.40;;
3847;SDS011;1939;48.720;9.166;2023-02-28T10:12:45;9.67;;;6.60;;
3847;SDS011;1939;48.720;9.166;2023-02-28T10:15:15;14.20;;;8.27;;
3847;SDS011;1939;48.720;9.166;2023-02-28T10:17:42;11.27;;;7.53;;
3847;SDS011;1939;48.720;9.166;2023-02-28T10:20:12;13.07;;;8.23;;
3847;SDS011;1939;48.720;9.166;2023-02-28T10:22:52;12.53;;;7.33;;
3847;SDS011;1939;48.720;9.166;2023-02-28T10:25:23;16.87;;;7.90;;
3847;SDS011;1939;48.720;9.166;2023-02-28T10:27:49;11.47;;;7.30;;
3847;SDS011;1939;48.720;9.166;2023-02-28T10:30:14;12.70;;;8.57;;
3847;SDS011;1939;48.720;9.166;2023-02-28T10:32:40;14.70;;;8.33;;
3847;SDS011;1939;48.720;9.166;2023-02-28T10:35:14;17.60;;;9.03;;
3847;SDS011;1939;48.720;9.166;2023-02-28T10:37:41;19.17;;;9.10;;
3847;SDS011;1939;48.720;9.166;2023-02-28T10:40:11;27.77;;;9.87;;
3847;SDS011;1939;48.720;9.166;2023-02-28T10:42:56;14.33;;;7.90;;
3847;SDS011;1939;48.720;9.166;2023-02-28T10:45:22;13.50;;;8.17;;
3847;SDS011;1939;48.720;9.166;2023-02-28T10:47:52;13.03;;;7.60;;
3847;SDS011;1939;48.720;9.166;2023-02-28T10:50:32;13.87;;;8.43;;
3847;SDS011;1939;48.720;9.166;2023-02-28T10:53:22;12.57;;;7.60;;
3847;SDS011;1939;48.720;9.166;2023-02-28T10:55:49;17.43;;;10.13;;
3847;SDS011;1939;48.720;9.166;2023-02-28T10:58:21;12.10;;;6.90;;
3847;SDS011;1939;48.720;9.166;2023-02-28T11:00:47;14.27;;;8.97;;
3847;SDS011;1939;48.720;9.166;2023-02-28T11:03:28;12.40;;;7.50;;
3847;SDS011;1939;48.720;9.166;2023-02-28T11:05:53;15.50;;;8.60;;
3847;SDS011;1939;48.720;9.166;2023-02-28T11:08:19;14.73;;;8.40;;
3847;SDS011;1939;48.720;9.166;2023-02-28T11:10:55;16.97;;;8.47;;
3847;SDS011;1939;48.720;9.166;2023-02-28T11:13:21;16.27;;;7.73;;
3847;SDS011;1939;48.720;9.166;2023-02-28T11:15:51;13.60;;;9.37;;
3847;SDS011;1939;48.720;9.166;2023-02-28T11:18:30;15.30;;;8.33;;
3847;SDS011;1939;48.720;9.166;2023-02-28T11:20:58;15.13;;;9.80;;
3847;SDS011;1939;48.720;9.166;2023-02-28T11:23:27;15.03;;;9.60;;
3847;SDS011;1939;48.720;9.166;2023-02-28T11:25:54;15.20;;;9.10;;
3847;SDS011;1939;48.720;9.166;2023-02-28T11:33:41;15.40;;;9.23;;
3847;SDS011;1939;48.720;9.166;2023-02-28T11:36:11;14.07;;;8.77;;
3847;SDS011;1939;48.720;9.166;2023-02-28T11:38:37;15.07;;;9.40;;
3847;SDS011;1939;48.720;9.166;2023-02-28T11:41:12;20.60;;;10.27;;
3847;SDS011;1939;48.720;9.166;2023-02-28T11:46:22;14.80;;;10.00;;
3847;SDS011;1939;48.720;9.166;2023-02-28T11:51:35;16.77;;;8.80;;
3847;SDS011;1939;48.720;9.166;2023-02-28T11:54:07;16.97;;;9.03;;
3847;SDS011;1939;48.720;9.166;2023-02-28T11:56:41;61.67;;;15.53;;
3847;SDS011;1939;48.720;9.166;2023-02-28T12:01:47;13.33;;;8.10;;
3847;SDS011;1939;48.720;9.166;2023-02-28T12:09:34;19.37;;;9.03;;
3847;SDS011;1939;48.720;9.166;2023-02-28T12:14:46;13.40;;;9.50;;
3847;SDS011;1939;48.720;9.166;2023-02-28T12:17:32;14.13;;;9.20;;
3847;SDS011;1939;48.720;9.166;2023-02-28T12:25:39;15.27;;;9.67;;
3847;SDS011;1939;48.720;9.166;2023-02-28T12:28:09;14.27;;;9.23;;
3847;SDS011;1939;48.720;9.166;2023-02-28T12:30:36;17.07;;;8.40;;
3847;SDS011;1939;48.720;9.166;2023-02-28T12:33:06;16.07;;;8.00;;
3847;SDS011;1939;48.720;9.166;2023-02-28T12:35:49;18.80;;;9.50;;
3847;SDS011;1939;48.720;9.166;2023-02-28T12:38:19;12.80;;;7.90;;
3847;SDS011;1939;48.720;9.166;2023-02-28T12:40:50;16.13;;;9.10;;
3847;SDS011;1939;48.720;9.166;2023-02-28T12:43:17;15.37;;;8.90;;
3847;SDS011;1939;48.720;9.166;2023-02-28T12:48:14;13.23;;;7.80;;
3847;SDS011;1939;48.720;9.166;2023-02-28T12:50:40;13.80;;;8.10;;
3847;SDS011;1939;48.720;9.166;2023-02-28T12:53:09;14.80;;;8.50;;
3847;SDS011;1939;48.720;9.166;2023-02-28T13:00:32;17.83;;;9.37;;
3847;SDS011;1939;48.720;9.166;2023-02-28T13:11:01;16.90;;;10.07;;
3847;SDS011;1939;48.720;9.166;2023-02-28T13:13:27;12.60;;;8.83;;
3847;SDS011;1939;48.720;9.166;2023-02-28T13:18:33;14.07;;;9.20;;
3847;SDS011;1939;48.720;9.166;2023-02-28T13:21:01;22.23;;;9.80;;
3847;SDS011;1939;48.720;9.166;2023-02-28T13:23:37;14.93;;;9.20;;
3847;SDS011;1939;48.720;9.166;2023-02-28T13:26:03;18.30;;;9.63;;
3847;SDS011;1939;48.720;9.166;2023-02-28T13:31:29;14.23;;;8.40;;
3847;SDS011;1939;48.720;9.166;2023-02-28T13:36:23;13.20;;;8.83;;
3847;SDS011;1939;48.720;9.166;2023-02-28T13:46:27;49.13;;;13.13;;
3847;SDS011;1939;48.720;9.166;2023-02-28T13:48:52;16.43;;;9.60;;
3847;SDS011;1939;48.720;9.166;2023-02-28T13:54:06;12.10;;;8.83;;
3847;SDS011;1939;48.720;9.166;2023-02-28T13:59:22;14.10;;;8.43;;
3847;SDS011;1939;48.720;9.166;2023-02-28T14:01:56;12.33;;;9.40;;
3847;SDS011;1939;48.720;9.166;2023-02-28T14:07:08;13.40;;;8.40;;
3847;SDS011;1939;48.720;9.166;2023-02-28T14:09:35;16.63;;;8.53;;
3847;SDS011;1939;48.720;9.166;2023-02-28T14:17:14;23.70;;;8.63;;
3847;SDS011;1939;48.720;9.166;2023-02-28T14:19:40;15.03;;;9.03;;
3847;SDS011;1939;48.720;9.166;2023-02-28T14:37:29;13.67;;;9.33;;
3847;SDS011;1939;48.720;9.166;2023-02-28T14:39:55;16.13;;;9.40;;
3847;SDS011;1939;48.720;9.166;2023-02-28T14:42:34;11.97;;;8.37;;
3847;SDS011;1939;48.720;9.166;2023-02-28T14:45:00;13.13;;;8.50;;
3847;SDS011;1939;48.720;9.166;2023-02-28T14:47:28;15.80;;;9.33;;
3847;SDS011;1939;48.720;9.166;2023-02-28T14:49:55;16.13;;;8.83;;
3847;SDS011;1939;48.720;9.166;2023-02-28T14:52:31;16.20;;;9.10;;
3847;SDS011;1939;48.720;9.166;2023-02-28T14:54:59;14.13;;;8.80;;
3847;SDS011;1939;48.720;9.166;2023-02-28T14:57:31;13.67;;;7.77;;
3847;SDS011;1939;48.720;9.166;2023-02-28T14:59:58;16.23;;;8.80;;
3847;SDS011;1939;48.720;9.166;2023-02-28T15:02:24;14.37;;;8.73;;
3847;SDS011;1939;48.720;9.166;2023-02-28T15:04:53;14.17;;;8.60;;
3847;SDS011;1939;48.720;9.166;2023-02-28T15:07:19;10.13;;;7.80;;
3847;SDS011;1939;48.720;9.166;2023-02-28T15:09:44;15.67;;;9.27;;
3847;SDS011;1939;48.720;9.166;2023-02-28T15:12:13;20.97;;;12.00;;
3847;SDS011;1939;48.720;9.166;2023-02-28T15:14:38;22.73;;;9.37;;
3847;SDS011;1939;48.720;9.166;2023-02-28T15:17:08;20.93;;;9.80;;
3847;SDS011;1939;48.720;9.166;2023-02-28T15:19:34;12.70;;;8.63;;
3847;SDS011;1939;48.720;9.166;2023-02-28T15:22:04;13.97;;;8.00;;
3847;SDS011;1939;48.720;9.166;2023-02-28T15:24:44;18.10;;;10.10;;
3847;SDS011;1939;48.720;9.166;2023-02-28T15:27:21;19.00;;;8.40;;
3847;SDS011;1939;48.720;9.166;2023-02-28T15:29:50;14.87;;;8.90;;
3847;SDS011;1939;48.720;9.166;2023-02-28T15:34:54;16.27;;;9.50;;
3847;SDS011;1939;48.720;9.166;2023-02-28T15:39:58;10.33;;;8.43;;
3847;SDS011;1939;48.720;9.166;2023-02-28T15:42:28;13.90;;;9.10;;
3847;SDS011;1939;48.720;9.166;2023-02-28T15:44:53;14.87;;;8.80;;
3847;SDS011;1939;48.720;9.166;2023-02-28T15:47:20;13.57;;;8.50;;
3847;SDS011;1939;48.720;9.166;2023-02-28T15:49:50;15.30;;;8.30;;
3847;SDS011;1939;48.720;9.166;2023-02-28T15:52:19;13.40;;;8.17;;
3847;SDS011;1939;48.720;9.166;2023-02-28T15:54:46;14.80;;;9.20;;
3847;SDS011;1939;48.720;9.166;2023-02-28T15:57:21;12.67;;;8.80;;
3847;SDS011;1939;48.720;9.166;2023-02-28T15:59:51;11.30;;;7.77;;
3847;SDS011;1939;48.720;9.166;2023-02-28T16:02:21;13.77;;;8.10;;
3847;SDS011;1939;48.720;9.166;2023-02-28T16:07:21;13.77;;;9.57;;
3847;SDS011;1939;48.720;9.166;2023-02-28T16:09:46;11.93;;;8.97;;
3847;SDS011;1939;48.720;9.166;2023-02-28T16:12:13;17.00;;;9.30;;
3847;SDS011;1939;48.720;9.166;2023-02-28T16:14:38;14.15;;;10.15;;
3847;SDS011;1939;48.720;9.166;2023-02-28T16:17:05;19.53;;;8.93;;
3847;SDS011;1939;48.720;9.166;2023-02-28T16:19:31;14.27;;;8.70;;
3847;SDS011;1939;48.720;9.166;2023-02-28T16:21:56;15.80;;;8.60;;
3847;SDS011;1939;48.720;9.166;2023-02-28T16:24:21;18.43;;;10.10;;
3847;SDS011;1939;48.720;9.166;2023-02-28T16:26:47;14.23;;;9.17;;
3847;SDS011;1939;48.720;9.166;2023-02-28T16:29:14;15.77;;;9.13;;
3847;SDS011;1939;48.720;9.166;2023-02-28T16:31:41;21.53;;;9.90;;
3847;SDS011;1939;48.720;9.166;2023-02-28T16:34:06;16.17;;;9.20;;
3847;SDS011;1939;48.720;9.166;2023-02-28T16:36:31;15.03;;;9.17;;
3847;SDS011;1939;48.720;9.166;2023-02-28T16:38:57;15.13;;;9.03;;
3847;SDS011;1939;48.720;9.166;2023-02-28T16:41:23;16.43;;;10.90;;
3847;SDS011;1939;48.720;9.166;2023-02-28T16:43:51;16.53;;;9.70;;
3847;SDS011;1939;48.720;9.166;2023-02-28T16:46:17;20.23;;;9.60;;
3847;SDS011;1939;48.720;9.166;2023-02-28T16:48:43;19.40;;;10.00;;
3847;SDS011;1939;48.720;9.166;2023-02-28T16:51:13;15.73;;;8.90;;
3847;SDS011;1939;48.720;9.166;2023-02-28T16:53:38;19.03;;;9.83;;
3847;SDS011;1939;48.720;9.166;2023-02-28T16:56:03;14.63;;;8.40;;
3847;SDS011;1939;48.720;9.166;2023-02-28T16:58:29;15.20;;;9.50;;
3847;SDS011;1939;48.720;9.166;2023-02-28T17:00:54;18.00;;;9.10;;
3847;SDS011;1939;48.720;9.166;2023-02-28T17:03:23;16.23;;;9.20;;
3847;SDS011;1939;48.720;9.166;2023-02-28T17:05:49;14.07;;;8.83;;
3847;SDS011;1939;48.720;9.166;2023-02-28T17:08:14;16.80;;;8.77;;
3847;SDS011;1939;48.720;9.166;2023-02-28T17:10:40;18.60;;;10.07;;
3847;SDS011;1939;48.720;9.166;2023-02-28T17:13:05;15.93;;;8.80;;
3847;SDS011;1939;48.720;9.166;2023-02-28T17:15:32;14.07;;;9.20;;
3847;SDS011;1939;48.720;9.166;2023-02-28T17:17:58;15.83;;;10.00;;